Time;durP1;ratioP1;P1;durP2;ratioP2;P2;SDS_P1;SDS_P2;PMS_P1;PMS_P2;Temp;Humidity;BMP_temperature;BMP_pressure;BME280_temperature;BME280_humidity;BME280_pressure;Samples;Min_cycle;Max_cycle;Signal;HPM_P1;HPM_P2
2022/04/24 00:00:09;;;;;;;8.95;6.63;;;15.60;85.40;;;;;;5055914;28;20040;-80
2022/04/24 00:02:35;;;;;;;12.50;7.18;;;15.70;85.00;;;;;;5055615;28;20037;-80
2022/04/24 00:05:02;;;;;;;9.30;6.07;;;15.70;84.70;;;;;;5055773;28;20029;-79
2022/04/24 00:07:29;;;;;;;6.68;5.68;;;15.60;85.20;;;;;;5055560;28;20043;-80
2022/04/24 00:09:55;;;;;;;8.50;5.63;;;15.40;85.40;;;;;;5055514;28;20512;-79
2022/04/24 00:12:21;;;;;;;9.68;5.72;;;15.30;85.10;;;;;;5055480;28;20036;-79
2022/04/24 00:14:48;;;;;;;8.40;5.85;;;15.30;85.30;;;;;;5055563;28;20037;-79
2022/04/24 00:17:20;;;;;;;11.18;6.03;;;15.20;85.70;;;;;;5055519;28;20100;-80
2022/04/24 00:19:46;;;;;;;8.13;5.45;;;15.30;85.50;;;;;;5055464;28;20033;-76
2022/04/24 00:22:12;;;;;;;8.23;5.47;;;15.40;85.00;;;;;;5021068;28;20056;-80
2022/04/24 00:24:38;;;;;;;8.77;5.30;;;15.40;84.50;;;;;;5037040;28;20037;-79
2022/04/24 00:27:03;;;;;;;14.20;4.60;;;15.30;85.60;;;;;;5055209;28;20419;-80
2022/04/24 00:29:29;;;;;;;8.63;5.72;;;15.30;84.70;;;;;;5055323;28;20029;-79
2022/04/24 00:31:55;;;;;;;8.80;5.22;;;15.30;84.20;;;;;;5055186;28;20064;-81
2022/04/24 00:34:21;;;;;;;7.15;4.85;;;15.30;84.10;;;;;;5054769;28;20025;-76
2022/04/24 00:36:46;;;;;;;8.38;5.63;;;15.20;84.30;;;;;;5055137;28;20473;-78
2022/04/24 00:39:13;;;;;;;9.65;5.10;;;15.30;84.10;;;;;;5020711;28;20397;-79
2022/04/24 00:41:47;;;;;;;8.23;5.07;;;15.40;84.10;;;;;;5054932;28;20200;-79
2022/04/24 00:44:17;;;;;;;8.63;5.40;;;15.10;84.00;;;;;;5037351;28;20069;-79
2022/04/24 00:47:16;;;;;;;6.72;5.00;;;15.20;84.00;;;;;;5055048;28;20036;-79
2022/04/24 00:49:44;;;;;;;11.77;4.80;;;15.30;83.80;;;;;;5054722;28;20031;-77
2022/04/24 00:52:10;;;;;;;7.22;5.25;;;15.20;83.70;;;;;;5054744;28;20025;-80
2022/04/24 00:54:37;;;;;;;11.57;4.63;;;15.10;83.60;;;;;;5054355;28;20481;-75
2022/04/24 00:57:06;;;;;;;7.63;5.15;;;15.00;83.90;;;;;;5054848;28;20104;-74
2022/04/24 00:59:32;;;;;;;7.85;4.90;;;14.80;84.70;;;;;;5054656;28;20036;-72
2022/04/24 01:01:59;;;;;;;7.90;5.38;;;14.80;84.50;;;;;;5054553;28;20025;-76
2022/04/24 01:04:25;;;;;;;6.10;4.72;;;14.70;84.50;;;;;;5054284;28;20421;-74
2022/04/24 01:06:51;;;;;;;7.88;4.78;;;14.70;84.70;;;;;;5054483;28;20036;-75
2022/04/24 01:09:20;;;;;;;8.57;5.20;;;14.60;85.00;;;;;;5054242;28;20559;-79
2022/04/24 01:11:48;;;;;;;9.38;5.20;;;14.70;85.10;;;;;;5054404;28;20078;-79
2022/04/24 01:14:17;;;;;;;7.63;5.55;;;14.60;84.90;;;;;;5054449;28;20469;-79
2022/04/24 01:16:45;;;;;;;12.15;4.75;;;14.60;85.10;;;;;;5054519;28;20041;-80
2022/04/24 01:19:11;;;;;;;6.43;4.70;;;14.70;85.00;;;;;;5054241;28;20104;-79
2022/04/24 01:21:41;;;;;;;9.65;4.82;;;14.50;85.30;;;;;;5054041;28;20182;-73
2022/04/24 01:24:08;;;;;;;7.32;4.97;;;14.60;85.00;;;;;;5054007;28;20132;-78
2022/04/24 01:26:35;;;;;;;6.35;4.63;;;14.50;85.40;;;;;;5054112;28;20493;-77
2022/04/24 01:29:02;;;;;;;5.80;4.80;;;14.50;85.40;;;;;;5054104;28;20033;-76
2022/04/24 01:31:28;;;;;;;5.88;4.65;;;14.40;85.50;;;;;;5053981;28;20096;-78
2022/04/24 01:33:54;;;;;;;7.93;4.78;;;14.40;85.90;;;;;;5053961;28;20553;-79
2022/04/24 01:36:20;;;;;;;8.75;4.13;;;14.30;85.50;;;;;;5054406;28;20466;-73
2022/04/24 01:38:46;;;;;;;10.73;4.80;;;14.30;85.70;;;;;;5053686;28;20040;-74
2022/04/24 01:41:12;;;;;;;7.93;4.15;;;14.30;86.20;;;;;;5054117;28;20126;-77
2022/04/24 01:43:38;;;;;;;6.85;4.13;;;14.20;85.90;;;;;;5053627;28;20020;-78
2022/04/24 01:46:05;;;;;;;9.25;4.20;;;14.20;86.20;;;;;;5053782;28;20031;-77
2022/04/24 01:48:34;;;;;;;5.45;4.35;;;14.20;86.60;;;;;;5053602;28;20131;-76
2022/04/24 01:51:01;;;;;;;8.05;4.97;;;14.10;86.50;;;;;;5053873;28;20033;-76
2022/04/24 01:53:28;;;;;;;12.68;5.10;;;14.00;86.90;;;;;;5053389;28;20035;-74
2022/04/24 01:55:59;;;;;;;5.57;4.57;;;14.00;87.40;;;;;;5035768;28;20036;-74
2022/04/24 01:58:25;;;;;;;5.57;4.55;;;13.90;87.70;;;;;;5053439;28;20037;-74
2022/04/24 02:00:52;;;;;;;8.40;4.53;;;13.90;87.70;;;;;;5053185;28;20493;-72
2022/04/24 02:03:19;;;;;;;6.40;4.93;;;13.80;87.90;;;;;;5053261;28;20035;-76
2022/04/24 02:05:45;;;;;;;6.10;4.57;;;13.90;87.70;;;;;;5035706;28;20044;-75
2022/04/24 02:08:11;;;;;;;5.78;4.47;;;13.80;88.00;;;;;;5053159;28;20036;-78
2022/04/24 02:10:37;;;;;;;7.30;4.47;;;13.70;87.80;;;;;;5053151;28;20060;-78
2022/04/24 02:13:03;;;;;;;6.90;4.55;;;13.70;88.00;;;;;;5053350;28;20021;-77
2022/04/24 02:15:29;;;;;;;11.88;4.55;;;13.80;88.10;;;;;;5053213;28;20453;-80
2022/04/24 02:17:55;;;;;;;8.02;4.70;;;13.90;87.90;;;;;;5053351;28;20507;-77
2022/04/24 02:20:23;;;;;;;6.28;3.88;;;13.90;87.60;;;;;;5052238;28;20024;-77
2022/04/24 02:22:49;;;;;;;5.43;4.50;;;13.80;87.70;;;;;;5033542;28;20036;-77
2022/04/24 02:25:15;;;;;;;12.32;4.43;;;13.80;88.20;;;;;;5032966;28;20160;-73
2022/04/24 02:27:41;;;;;;;10.20;4.35;;;13.90;88.00;;;;;;5033247;28;20051;-73
2022/04/24 02:30:08;;;;;;;6.35;5.00;;;13.80;87.70;;;;;;5015325;28;20029;-72
2022/04/24 02:32:34;;;;;;;7.43;4.65;;;13.70;88.60;;;;;;5015510;28;20386;-79
2022/04/24 02:35:00;;;;;;;5.47;4.60;;;13.70;88.80;;;;;;5032665;28;20041;-75
2022/04/24 02:37:26;;;;;;;5.93;4.80;;;13.50;88.70;;;;;;5016205;28;20029;-79
2022/04/24 02:39:52;;;;;;;5.63;4.80;;;13.50;88.90;;;;;;5034489;28;20075;-78
2022/04/24 02:42:18;;;;;;;6.03;4.70;;;13.60;89.20;;;;;;5033521;28;20109;-79
2022/04/24 02:44:44;;;;;;;6.07;4.43;;;13.40;89.20;;;;;;5033972;28;20025;-79
2022/04/24 02:47:11;;;;;;;9.23;4.97;;;13.30;90.00;;;;;;5019873;28;20374;-78
2022/04/24 02:49:37;;;;;;;8.68;5.38;;;13.40;90.00;;;;;;5053178;28;20067;-76
2022/04/24 02:52:03;;;;;;;7.57;4.93;;;13.40;90.20;;;;;;5052995;28;20028;-77
2022/04/24 02:54:30;;;;;;;11.95;5.35;;;13.40;90.10;;;;;;5040116;28;20036;-76
2022/04/24 02:56:55;;;;;;;9.18;5.00;;;13.40;89.90;;;;;;5082775;28;20028;-78
2022/04/24 02:59:21;;;;;;;9.30;5.40;;;13.40;90.10;;;;;;5074540;28;20037;-77
2022/04/24 03:01:48;;;;;;;10.95;4.90;;;13.30;90.00;;;;;;5057029;28;20021;-79
2022/04/24 03:04:14;;;;;;;9.48;5.38;;;13.20;90.60;;;;;;5063430;28;20112;-77
2022/04/24 03:06:40;;;;;;;5.97;5.22;;;13.20;90.60;;;;;;5050648;28;20048;-78
2022/04/24 03:09:06;;;;;;;7.47;4.68;;;13.10;90.60;;;;;;5035541;28;20529;-77
2022/04/24 03:11:31;;;;;;;8.00;5.57;;;13.10;90.90;;;;;;5052630;28;20363;-78
2022/04/24 03:13:57;;;;;;;10.05;6.10;;;13.10;90.80;;;;;;5056973;28;20053;-78
2022/04/24 03:16:23;;;;;;;6.22;5.38;;;13.10;90.80;;;;;;5038827;28;20044;-79
2022/04/24 03:18:49;;;;;;;8.15;5.63;;;13.00;91.30;;;;;;5056169;28;20059;-78
2022/04/24 03:21:15;;;;;;;7.88;5.15;;;12.80;91.60;;;;;;5056543;28;20170;-78
2022/04/24 03:23:40;;;;;;;7.75;5.63;;;12.90;91.40;;;;;;5056479;28;20021;-79
2022/04/24 03:26:06;;;;;;;7.97;5.40;;;12.80;91.80;;;;;;5056369;28;20116;-79
2022/04/24 03:28:32;;;;;;;9.88;5.50;;;13.00;91.90;;;;;;5038670;28;20028;-79
2022/04/24 03:30:58;;;;;;;6.53;5.80;;;13.00;91.90;;;;;;5038468;28;20435;-79
2022/04/24 03:33:24;;;;;;;9.13;5.55;;;13.10;91.60;;;;;;5038387;28;20029;-78
2022/04/24 03:35:50;;;;;;;6.13;5.20;;;13.10;91.80;;;;;;5038300;28;20037;-77
2022/04/24 03:38:16;;;;;;;11.35;5.97;;;13.00;91.60;;;;;;5056366;28;20142;-78
2022/04/24 03:40:41;;;;;;;7.60;5.43;;;12.90;91.80;;;;;;5056041;28;20025;-78
2022/04/24 03:43:07;;;;;;;8.15;5.60;;;13.00;91.80;;;;;;5021905;28;20052;-78
2022/04/24 03:45:33;;;;;;;10.38;5.72;;;13.00;91.90;;;;;;5056032;28;20154;-78
2022/04/24 03:47:58;;;;;;;8.38;5.63;;;12.90;91.80;;;;;;5055759;28;20029;-78
2022/04/24 03:50:25;;;;;;;7.75;5.68;;;12.80;92.20;;;;;;5055811;28;20029;-78
2022/04/24 03:52:50;;;;;;;7.72;5.15;;;12.80;92.40;;;;;;5056004;28;20021;-79
2022/04/24 03:55:16;;;;;;;8.27;5.88;;;12.90;92.60;;;;;;5055748;28;20055;-79
2022/04/24 03:57:42;;;;;;;6.20;5.45;;;12.80;92.60;;;;;;5055760;28;20029;-79
2022/04/24 04:00:08;;;;;;;6.97;5.68;;;12.80;92.60;;;;;;5055891;28;20052;-79
2022/04/24 04:02:44;;;;;;;8.27;6.28;;;12.80;92.60;;;;;;5055219;28;20032;-79
2022/04/24 04:05:11;;;;;;;6.47;5.78;;;12.80;92.90;;;;;;5055573;28;20090;-79
2022/04/24 04:07:36;;;;;;;8.00;6.03;;;12.60;93.10;;;;;;5054330;28;20485;-79
2022/04/24 04:10:03;;;;;;;9.40;6.70;;;12.40;93.70;;;;;;5036679;28;20029;-79
2022/04/24 04:12:29;;;;;;;8.35;6.50;;;12.40;94.00;;;;;;5036487;28;20486;-79
2022/04/24 04:14:55;;;;;;;6.82;5.63;;;12.40;94.20;;;;;;5036555;28;20124;-79
2022/04/24 04:17:21;;;;;;;13.75;7.05;;;12.50;94.10;;;;;;5053978;28;20021;-80
2022/04/24 04:19:46;;;;;;;8.35;5.72;;;12.40;94.30;;;;;;5054314;28;20075;-79
2022/04/24 04:22:12;;;;;;;9.13;6.60;;;12.40;94.40;;;;;;5054371;28;20024;-80
2022/04/24 04:24:38;;;;;;;7.75;6.18;;;12.30;95.00;;;;;;5035908;28;20033;-80
2022/04/24 04:27:04;;;;;;;10.80;6.00;;;12.30;94.90;;;;;;5053997;28;20029;-80
2022/04/24 04:29:30;;;;;;;8.15;6.47;;;12.20;95.40;;;;;;5054248;28;20037;-80
2022/04/24 04:31:55;;;;;;;8.57;6.00;;;12.20;95.80;;;;;;5053869;28;20032;-79
2022/04/24 04:34:21;;;;;;;9.02;7.25;;;12.20;96.00;;;;;;5053924;28;20420;-79
2022/04/24 04:36:47;;;;;;;9.23;7.00;;;12.20;95.90;;;;;;5053930;28;20055;-79
2022/04/24 04:39:13;;;;;;;9.15;6.75;;;12.20;96.20;;;;;;5036047;28;20492;-79
2022/04/24 04:41:40;;;;;;;13.60;7.60;;;12.20;96.30;;;;;;5019648;28;20025;-80
2022/04/24 04:44:06;;;;;;;10.63;7.43;;;12.10;96.70;;;;;;5053999;28;20061;-79
2022/04/24 04:46:31;;;;;;;10.05;7.13;;;12.10;97.00;;;;;;5053506;28;20090;-81
2022/04/24 04:48:57;;;;;;;12.90;7.10;;;12.10;96.60;;;;;;5053766;28;20025;-79
2022/04/24 04:51:23;;;;;;;9.38;6.97;;;12.10;97.20;;;;;;5053812;28;20069;-79
2022/04/24 04:53:51;;;;;;;9.32;7.15;;;12.30;97.10;;;;;;5053706;28;20112;-78
2022/04/24 04:56:17;;;;;;;11.70;7.03;;;12.20;97.00;;;;;;5053767;28;20036;-80
2022/04/24 04:58:43;;;;;;;11.68;8.00;;;12.30;96.90;;;;;;5053581;28;20036;-80
2022/04/24 05:01:09;;;;;;;15.13;8.02;;;12.30;97.40;;;;;;5053458;28;20025;-79
2022/04/24 05:03:35;;;;;;;11.35;7.63;;;12.10;97.60;;;;;;5035717;28;20071;-79
2022/04/24 05:06:00;;;;;;;8.20;7.07;;;12.10;97.60;;;;;;5035590;28;261709;-80
2022/04/24 05:08:26;;;;;;;10.55;7.07;;;12.30;97.70;;;;;;5045786;28;20500;-79
2022/04/24 05:10:52;;;;;;;7.85;7.05;;;12.30;97.90;;;;;;5054558;28;20051;-80
2022/04/24 05:13:18;;;;;;;15.00;7.68;;;12.30;97.90;;;;;;5054439;28;20362;-80
2022/04/24 05:15:43;;;;;;;10.85;8.07;;;12.30;97.60;;;;;;5054325;28;20063;-79
2022/04/24 05:18:09;;;;;;;12.30;7.78;;;12.20;98.20;;;;;;5052255;28;20067;-79
2022/04/24 05:20:36;;;;;;;12.85;8.13;;;12.20;98.30;;;;;;5050504;28;20078;-80
2022/04/24 05:23:06;;;;;;;10.43;7.95;;;12.30;98.40;;;;;;5053880;28;20071;-79
2022/04/24 05:25:32;;;;;;;12.45;7.90;;;12.10;98.60;;;;;;5054502;28;20036;-79
2022/04/24 05:28:00;;;;;;;10.70;8.10;;;11.90;99.20;;;;;;5054152;28;20031;-79
2022/04/24 05:30:28;;;;;;;10.63;8.10;;;12.00;99.60;;;;;;5053938;28;20028;-79
2022/04/24 05:32:54;;;;;;;10.73;7.60;;;12.00;99.60;;;;;;5054958;28;20079;-80
2022/04/24 05:35:20;;;;;;;9.63;7.88;;;12.10;99.80;;;;;;5053709;28;20401;-79
2022/04/24 05:37:47;;;;;;;11.73;8.05;;;12.20;99.50;;;;;;5053789;28;20025;-79
2022/04/24 05:40:14;;;;;;;11.45;8.70;;;12.00;99.90;;;;;;5053783;28;20033;-79
2022/04/24 05:42:52;;;;;;;10.57;8.13;;;12.00;99.90;;;;;;5020314;28;20474;-80
2022/04/24 05:45:22;;;;;;;11.27;9.10;;;11.90;99.90;;;;;;5033864;28;20412;-80
2022/04/24 05:47:51;;;;;;;13.63;8.23;;;12.00;99.90;;;;;;5041336;28;20041;-79
2022/04/24 05:50:18;;;;;;;10.02;8.20;;;11.70;99.90;;;;;;5053828;28;20046;-80
2022/04/24 05:52:43;;;;;;;12.18;8.32;;;11.70;99.90;;;;;;5053755;28;20057;-80
2022/04/24 05:55:10;;;;;;;14.18;8.65;;;11.80;99.90;;;;;;5035878;28;20060;-79
2022/04/24 05:57:37;;;;;;;13.35;9.10;;;11.70;99.90;;;;;;5053818;28;20024;-80
2022/04/24 06:00:07;;;;;;;12.02;8.63;;;11.60;99.90;;;;;;5053204;28;20089;-80
2022/04/24 06:02:39;;;;;;;14.70;10.20;;;11.60;99.90;;;;;;5053311;28;20389;-80
2022/04/24 06:05:05;;;;;;;15.32;9.43;;;11.70;99.90;;;;;;5053145;28;20481;-80
2022/04/24 06:07:31;;;;;;;12.15;9.30;;;11.60;99.90;;;;;;5053645;28;20486;-79
2022/04/24 06:09:57;;;;;;;14.45;9.52;;;11.70;99.90;;;;;;5053135;28;20033;-79
2022/04/24 06:12:23;;;;;;;13.80;9.48;;;11.80;99.90;;;;;;5053595;28;20028;-79
2022/04/24 06:14:48;;;;;;;14.02;9.27;;;12.00;99.90;;;;;;5034985;28;20040;-79
2022/04/24 06:17:14;;;;;;;14.35;10.25;;;12.00;99.90;;;;;;5035654;28;20086;-81
2022/04/24 06:19:40;;;;;;;15.88;10.85;;;11.80;99.90;;;;;;5053300;28;20051;-79
2022/04/24 06:22:06;;;;;;;17.05;9.85;;;12.10;99.90;;;;;;5035415;28;20029;-80
2022/04/24 06:24:31;;;;;;;13.80;10.23;;;12.20;99.90;;;;;;5050773;28;20052;-79
2022/04/24 06:26:57;;;;;;;19.67;9.63;;;12.40;99.90;;;;;;5034638;28;20485;-80
2022/04/24 06:29:23;;;;;;;15.48;9.70;;;12.60;99.90;;;;;;5052600;28;20434;-80
2022/04/24 06:31:48;;;;;;;15.73;9.15;;;12.50;99.90;;;;;;5052566;28;20024;-79
2022/04/24 06:34:14;;;;;;;12.55;9.15;;;12.70;99.90;;;;;;5052654;28;20033;-81
2022/04/24 06:36:40;;;;;;;16.60;9.60;;;13.00;99.90;;;;;;5052093;28;20147;-81
2022/04/24 06:39:07;;;;;;;11.40;9.02;;;13.10;99.90;;;;;;5034071;28;20033;-81
2022/04/24 06:41:32;;;;;;;11.50;8.93;;;13.30;99.50;;;;;;5052313;28;20071;-80
2022/04/24 06:43:58;;;;;;;10.85;8.55;;;13.20;99.60;;;;;;5052090;28;20060;-80
2022/04/24 06:46:24;;;;;;;10.23;7.53;;;13.10;99.90;;;;;;5052417;28;20029;-78
2022/04/24 06:48:50;;;;;;;12.35;9.30;;;12.90;99.90;;;;;;5034486;28;20036;-77
2022/04/24 06:51:15;;;;;;;12.35;8.77;;;13.00;99.90;;;;;;5052328;28;20025;-75
2022/04/24 06:53:42;;;;;;;12.50;8.95;;;13.10;99.90;;;;;;5052339;28;20504;-79
2022/04/24 06:56:08;;;;;;;14.65;8.57;;;13.00;99.90;;;;;;5051627;28;20091;-75
2022/04/24 06:58:34;;;;;;;11.77;8.43;;;13.20;99.60;;;;;;5051875;28;20032;-78
2022/04/24 07:00:59;;;;;;;14.20;8.82;;;13.10;99.90;;;;;;5045286;28;20029;-75
2022/04/24 07:03:28;;;;;;;13.35;9.20;;;13.20;99.90;;;;;;5039022;28;20415;-77
2022/04/24 07:05:54;;;;;;;13.55;9.30;;;13.20;99.70;;;;;;5037139;28;20037;-76
2022/04/24 07:08:21;;;;;;;12.50;8.18;;;13.40;99.20;;;;;;5047349;28;20017;-79
2022/04/24 07:10:47;;;;;;;10.95;8.30;;;13.30;99.90;;;;;;5050785;28;20630;-80
2022/04/24 07:13:13;;;;;;;14.05;8.75;;;13.50;99.80;;;;;;5034467;28;20029;-78
2022/04/24 07:15:39;;;;;;;14.48;8.90;;;13.60;99.70;;;;;;5032210;28;20036;-79
2022/04/24 07:18:07;;;;;;;10.55;8.70;;;13.70;99.00;;;;;;5031505;28;20147;-76
2022/04/24 07:20:33;;;;;;;10.02;8.32;;;13.70;98.70;;;;;;5031351;28;20021;-78
2022/04/24 07:23:02;;;;;;;13.57;9.07;;;13.80;98.40;;;;;;5032708;28;20063;-80
2022/04/24 07:25:33;;;;;;;14.38;7.97;;;13.70;98.60;;;;;;5013591;28;20389;-80
2022/04/24 07:27:58;;;;;;;10.80;8.05;;;14.10;97.50;;;;;;5046498;28;20040;-80
2022/04/24 07:30:25;;;;;;;15.25;8.38;;;14.00;98.20;;;;;;5057004;28;20025;-81
2022/04/24 07:32:52;;;;;;;12.55;7.78;;;14.10;98.00;;;;;;5051871;28;20033;-79
2022/04/24 07:35:21;;;;;;;9.60;7.53;;;14.20;97.70;;;;;;5054406;28;20122;-78
2022/04/24 07:37:47;;;;;;;11.73;7.38;;;14.30;97.80;;;;;;5045103;28;20032;-78
2022/04/24 07:40:15;;;;;;;7.65;6.35;;;14.20;97.90;;;;;;5032868;28;20021;-80
2022/04/24 07:42:56;;;;;;;14.35;9.32;;;14.30;97.20;;;;;;5050924;28;20032;-78
2022/04/24 07:45:24;;;;;;;13.48;7.93;;;14.70;96.40;;;;;;5048235;28;20029;-79
2022/04/24 07:47:52;;;;;;;13.23;7.78;;;14.80;96.20;;;;;;5044465;28;20367;-80
2022/04/24 07:50:20;;;;;;;11.43;7.13;;;15.10;95.30;;;;;;5030240;28;20122;-81
2022/04/24 07:52:47;;;;;;;10.95;7.15;;;15.10;94.80;;;;;;5047815;28;20087;-78
2022/04/24 07:55:17;;;;;;;9.43;7.53;;;15.00;94.30;;;;;;5047248;28;20049;-77
2022/04/24 07:57:49;;;;;;;9.25;7.10;;;14.80;94.60;;;;;;5050427;28;20444;-79
2022/04/24 08:00:17;;;;;;;10.25;7.40;;;14.80;95.00;;;;;;5051333;28;20029;-80
2022/04/24 08:02:57;;;;;;;10.02;7.53;;;14.90;94.70;;;;;;5035821;28;20120;-80
2022/04/24 08:05:40;;;;;;;10.45;7.45;;;15.20;94.80;;;;;;5053963;28;20025;-77
2022/04/24 08:08:08;;;;;;;9.00;7.50;;;15.30;94.50;;;;;;5050928;28;20056;-81
2022/04/24 08:10:37;;;;;;;11.80;7.05;;;15.30;93.80;;;;;;5053234;28;20028;-76
2022/04/24 08:13:05;;;;;;;9.10;6.85;;;15.30;93.90;;;;;;5050363;28;20486;-75
2022/04/24 08:15:36;;;;;;;12.18;7.13;;;15.40;93.50;;;;;;5025752;28;20065;-82
2022/04/24 08:18:04;;;;;;;9.38;7.32;;;15.50;93.10;;;;;;5052067;28;20051;-76
2022/04/24 08:20:32;;;;;;;13.55;7.28;;;15.50;93.70;;;;;;5033673;28;20855;-81
2022/04/24 08:22:59;;;;;;;9.40;7.03;;;15.80;93.30;;;;;;5049504;28;20028;-82
2022/04/24 08:25:26;;;;;;;12.07;7.57;;;15.90;93.20;;;;;;5034854;28;20112;-81
2022/04/24 08:27:54;;;;;;;12.25;7.18;;;15.90;92.70;;;;;;5016578;28;20401;-81
2022/04/24 08:30:22;;;;;;;11.55;7.13;;;16.00;92.40;;;;;;5034165;28;20022;-80
2022/04/24 08:32:48;;;;;;;8.98;6.90;;;16.30;92.50;;;;;;5034416;28;20029;-80
2022/04/24 08:35:16;;;;;;;11.60;7.63;;;16.70;91.10;;;;;;5034200;28;20548;-76
2022/04/24 08:37:42;;;;;;;13.90;7.22;;;16.80;91.20;;;;;;5016730;28;20025;-79
2022/04/24 08:40:11;;;;;;;12.90;7.00;;;16.90;91.40;;;;;;5034199;28;20032;-82
2022/04/24 08:42:37;;;;;;;9.45;7.43;;;16.90;90.80;;;;;;5036768;28;20440;-81
2022/04/24 08:45:04;;;;;;;8.93;6.47;;;17.10;90.50;;;;;;5016239;28;20498;-82
2022/04/24 08:47:30;;;;;;;8.75;6.47;;;16.90;90.40;;;;;;5035726;28;20026;-80
2022/04/24 08:49:58;;;;;;;11.05;7.15;;;16.70;90.40;;;;;;5044476;28;20036;-81
2022/04/24 08:52:25;;;;;;;8.82;7.05;;;17.00;91.00;;;;;;5049541;28;20124;-76
2022/04/24 08:54:52;;;;;;;9.30;7.00;;;17.30;90.50;;;;;;5050387;28;20147;-79
2022/04/24 08:57:19;;;;;;;10.77;7.22;;;17.60;90.10;;;;;;5051065;28;20123;-82
2022/04/24 08:59:46;;;;;;;10.88;7.05;;;17.70;89.30;;;;;;5052837;28;20025;-81
2022/04/24 09:02:12;;;;;;;9.90;6.80;;;17.70;89.10;;;;;;5048435;28;20050;-76
2022/04/24 09:04:39;;;;;;;9.90;7.22;;;17.40;89.10;;;;;;5055752;28;20028;-78
2022/04/24 09:07:07;;;;;;;11.20;7.50;;;17.60;89.00;;;;;;5072700;28;20036;-81
2022/04/24 09:09:44;;;;;;;12.43;7.38;;;17.60;87.90;;;;;;5052356;28;20025;-80
2022/04/24 09:12:12;;;;;;;11.88;7.07;;;17.60;88.40;;;;;;5043876;28;20033;-78
2022/04/24 09:14:38;;;;;;;10.13;7.23;;;17.90;87.80;;;;;;5052746;28;20449;-82
2022/04/24 09:17:15;;;;;;;9.50;7.03;;;18.00;87.50;;;;;;5052725;28;20017;-81
2022/04/24 09:19:41;;;;;;;9.07;6.88;;;18.00;87.30;;;;;;5039877;28;20043;-81
2022/04/24 09:22:11;;;;;;;8.68;7.28;;;18.20;86.60;;;;;;5047249;28;20029;-81
2022/04/24 09:24:47;;;;;;;12.10;6.88;;;18.20;86.10;;;;;;5042984;28;20466;-82
2022/04/24 09:27:22;;;;;;;11.63;6.65;;;18.10;86.80;;;;;;5023965;28;20264;-81
2022/04/24 09:29:56;;;;;;;9.20;6.95;;;18.40;87.10;;;;;;5037853;28;20164;-81
2022/04/24 09:32:24;;;;;;;11.68;7.03;;;18.50;85.50;;;;;;5040013;28;20503;-81
2022/04/24 09:34:51;;;;;;;11.50;7.32;;;18.50;85.80;;;;;;5031187;28;20036;-81
2022/04/24 09:37:18;;;;;;;10.95;6.63;;;18.70;85.70;;;;;;5051548;28;20024;-81
2022/04/24 09:39:44;;;;;;;9.60;6.55;;;18.80;84.80;;;;;;5052105;28;20461;-81
2022/04/24 09:42:11;;;;;;;8.23;6.78;;;19.00;84.40;;;;;;5036489;28;20402;-80
2022/04/24 09:44:42;;;;;;;10.63;6.60;;;19.30;84.10;;;;;;5036642;28;20096;-81
2022/04/24 09:47:08;;;;;;;9.65;6.18;;;19.60;83.60;;;;;;5043576;28;20028;-81
2022/04/24 09:49:38;;;;;;;10.65;7.03;;;19.40;83.90;;;;;;5030506;28;20622;-81
2022/04/24 09:52:15;;;;;;;12.90;6.60;;;19.30;84.10;;;;;;5051992;28;20440;-80
2022/04/24 09:54:44;;;;;;;7.45;6.65;;;19.50;83.30;;;;;;5042690;28;20035;-80
2022/04/24 09:57:11;;;;;;;7.32;5.78;;;19.80;83.80;;;;;;5044534;28;20029;-80
2022/04/24 09:59:39;;;;;;;20.90;6.63;;;19.80;82.40;;;;;;5044167;28;20083;-79
2022/04/24 10:02:08;;;;;;;10.35;7.20;;;19.80;83.00;;;;;;5019522;28;20028;-75
2022/04/24 10:04:36;;;;;;;7.95;6.57;;;19.90;82.50;;;;;;5031940;28;20104;-81
2022/04/24 10:07:11;;;;;;;10.85;7.97;;;19.60;82.60;;;;;;5046432;28;20029;-80
2022/04/24 10:09:47;;;;;;;11.10;6.38;;;19.60;82.00;;;;;;5047160;28;20061;-75
2022/04/24 10:12:18;;;;;;;10.43;6.75;;;19.80;83.40;;;;;;5064318;28;20028;-79
2022/04/24 10:14:57;;;;;;;9.25;6.90;;;19.70;82.10;;;;;;5051823;28;20420;-79
2022/04/24 10:17:47;;;;;;;13.45;5.93;;;20.20;81.50;;;;;;5042631;28;20037;-79
2022/04/24 10:20:23;;;;;;;9.02;6.70;;;20.40;82.20;;;;;;5030727;28;20029;-79
2022/04/24 10:22:53;;;;;;;8.23;6.07;;;20.20;80.80;;;;;;5041398;28;20051;-80
2022/04/24 10:25:32;;;;;;;10.52;6.50;;;20.20;80.70;;;;;;5031987;28;20036;-79
2022/04/24 10:28:12;;;;;;;7.25;5.60;;;20.40;80.80;;;;;;5052902;28;20048;-79
2022/04/24 10:30:38;;;;;;;11.38;5.80;;;20.30;80.80;;;;;;5043737;28;20057;-80
2022/04/24 10:33:18;;;;;;;12.13;6.60;;;20.10;80.70;;;;;;5039982;28;20048;-80
2022/04/24 10:36:03;;;;;;;8.88;6.50;;;20.30;80.40;;;;;;5051632;28;20091;-79
2022/04/24 10:38:32;;;;;;;8.27;5.82;;;20.60;79.90;;;;;;5052249;28;20032;-80
2022/04/24 10:41:15;;;;;;;12.13;6.85;;;21.00;79.40;;;;;;5053116;28;20422;-82
2022/04/24 10:43:51;;;;;;;12.63;6.63;;;21.50;79.10;;;;;;5034975;28;20414;-80
2022/04/24 10:46:26;;;;;;;10.10;6.65;;;21.60;78.40;;;;;;5030781;28;20025;-77
2022/04/24 10:48:53;;;;;;;10.02;6.03;;;21.60;78.30;;;;;;5047139;28;20033;-81
2022/04/24 10:51:30;;;;;;;7.43;6.40;;;21.00;77.00;;;;;;5051994;28;20071;-81
2022/04/24 10:53:58;;;;;;;8.07;6.30;;;20.80;78.20;;;;;;5052248;28;20075;-81
2022/04/24 10:56:29;;;;;;;11.18;6.10;;;20.80;77.80;;;;;;5052175;28;20032;-81
2022/04/24 10:59:18;;;;;;;10.57;6.00;;;21.10;78.80;;;;;;5052790;28;20388;-82
2022/04/24 11:01:47;;;;;;;13.63;6.63;;;20.90;76.90;;;;;;5034706;28;20290;-81
2022/04/24 11:04:14;;;;;;;7.93;5.75;;;21.10;77.30;;;;;;5051906;28;20380;-80
2022/04/24 11:06:54;;;;;;;8.85;6.05;;;21.20;78.50;;;;;;5052252;28;20033;-82
2022/04/24 11:09:20;;;;;;;9.43;6.35;;;21.40;77.80;;;;;;5034350;28;20029;-81
2022/04/24 11:11:51;;;;;;;8.93;6.53;;;21.20;75.80;;;;;;5052177;28;20036;-81
2022/04/24 11:14:22;;;;;;;9.25;6.35;;;21.40;76.70;;;;;;5052279;28;20033;-80
2022/04/24 11:16:54;;;;;;;8.07;5.90;;;21.40;76.60;;;;;;5052124;28;20033;-81
2022/04/24 11:19:25;;;;;;;7.63;6.00;;;21.70;77.50;;;;;;5056717;28;20564;-81
2022/04/24 11:21:59;;;;;;;10.67;6.33;;;21.70;76.90;;;;;;5072403;28;20037;-81
2022/04/24 11:24:33;;;;;;;12.45;5.43;;;21.60;76.30;;;;;;5071940;28;20282;-80
2022/04/24 11:27:12;;;;;;;13.38;6.60;;;22.40;74.20;;;;;;5038086;28;20021;-82
2022/04/24 11:29:39;;;;;;;9.05;6.00;;;22.80;74.00;;;;;;5072382;28;20119;-82
2022/04/24 11:32:08;;;;;;;10.43;5.40;;;22.50;75.00;;;;;;5054201;28;20029;-82
2022/04/24 11:34:34;;;;;;;8.10;5.85;;;23.10;74.50;;;;;;5073842;28;20469;-81
2022/04/24 11:37:00;;;;;;;9.30;6.75;;;23.10;72.60;;;;;;5075916;28;20508;-80
2022/04/24 11:39:26;;;;;;;9.40;5.95;;;22.50;74.40;;;;;;5076100;28;20020;-82
2022/04/24 11:41:55;;;;;;;9.25;5.72;;;22.70;74.90;;;;;;5057029;28;20043;-82
2022/04/24 11:50:14;;;;;;;4.88;4.38;;;21.90;74.30;;;;;;5055810;28;20450;-80
2022/04/24 11:52:46;;;;;;;11.82;6.47;;;23.00;75.10;;;;;;5038207;28;20155;-82
2022/04/24 11:56:01;;;;;;;9.65;6.32;;;24.20;73.00;;;;;;5055994;28;20116;-82
2022/04/24 11:58:12;;;;;;;6.03;5.35;;;23.80;71.60;;;;;;5055568;28;20056;-82
2022/04/24 12:00:38;;;;;;;8.05;5.72;;;23.60;71.90;;;;;;5055433;28;20025;-82
2022/04/24 12:03:08;;;;;;;7.95;5.32;;;23.60;70.20;;;;;;5037753;28;20037;-81
2022/04/24 12:05:34;;;;;;;6.50;4.47;;;23.60;70.80;;;;;;5055148;28;20063;-81
2022/04/24 12:08:01;;;;;;;5.20;4.45;;;23.40;70.10;;;;;;5055653;28;20054;-81
2022/04/24 12:10:26;;;;;;;8.18;4.97;;;23.70;70.60;;;;;;5055417;28;20060;-82
2022/04/24 12:12:53;;;;;;;10.25;5.40;;;23.70;69.70;;;;;;5055058;28;20501;-82
2022/04/24 12:15:24;;;;;;;11.80;5.28;;;23.70;70.80;;;;;;5037335;28;20124;-82
2022/04/24 12:17:54;;;;;;;7.53;4.07;;;23.80;69.10;;;;;;5055392;28;20104;-80
2022/04/24 12:20:40;;;;;;;7.93;4.63;;;24.00;69.20;;;;;;5055162;28;20036;-82
2022/04/24 12:23:14;;;;;;;6.25;4.55;;;23.80;68.90;;;;;;5055408;28;20060;-80
2022/04/24 12:25:47;;;;;;;6.22;4.72;;;24.00;68.80;;;;;;5037171;28;20032;-79
2022/04/24 12:28:26;;;;;;;8.48;4.65;;;23.80;69.30;;;;;;5055373;28;20037;-82
2022/04/24 12:30:52;;;;;;;8.52;4.15;;;25.10;67.80;;;;;;5054728;28;20044;-75
2022/04/24 12:33:18;;;;;;;14.77;3.58;;;24.70;68.30;;;;;;5055035;28;20473;-76
2022/04/24 12:35:44;;;;;;;10.85;4.43;;;25.60;67.30;;;;;;5037164;28;20056;-79
2022/04/24 12:38:18;;;;;;;9.68;6.07;;;26.40;66.10;;;;;;5054323;28;20483;-78
2022/04/24 12:41:00;;;;;;;5.85;4.75;;;25.30;66.50;;;;;;5036933;28;20051;-81
2022/04/24 12:43:27;;;;;;;9.43;5.10;;;24.90;66.50;;;;;;5037008;28;20053;-80
2022/04/24 12:45:55;;;;;;;6.65;4.57;;;23.90;67.60;;;;;;5054267;28;20063;-81
2022/04/24 12:48:23;;;;;;;6.05;4.43;;;24.50;68.40;;;;;;5054257;28;20118;-82
2022/04/24 12:50:50;;;;;;;5.93;4.50;;;24.90;67.60;;;;;;5036785;28;20025;-81
2022/04/24 12:53:21;;;;;;;5.32;4.75;;;24.90;66.80;;;;;;5054696;28;20032;-81